EGKKGCGM

Guest
Details From EGKK - London Gatwick
To GCGM - La Gomera
Flight Number -
Tags Generated
Created
Modified
Stats Distance 1,588 nm / 2,940 km
Max Altitude 0 ft / 0 m
Waypoints 5
Social Downloads 0
Likes 0
Share VATSIM

Download

Looking for another format? Having issues loading an existing format? Contact us
Advertisement - Login to hide

Notes

Generated

Route

EGKK LOR69 RELVA LGM GCGM

ID Type Via Altitude Latitude Longitude Leg Dist Tot Dist Heading (true) Name
O EGKK APT - 0 ft / 0 m 51.14691˚ -0.21257˚ - 0 nm - -
LOR69 FIX - 0 ft / 0 m 47.74976˚ -3.68773˚ 244 nm 244 nm 215° / 212° -
RELVA FIX - 0 ft / 0 m 41.85278˚ -8.59750˚ 411 nm 656 nm 212° / 209° -
LGM VOR - 0 ft / 0 m 28.02874˚ -17.21487˚ 931 nm 1587 nm 210° / 205° LA GOMERA VOR-DME
O GCGM APT - 0 ft / 0 m 28.02859˚ -17.22214˚ 0 nm 1587 nm 269° / 269° -

Altitude Profile

Advertisement - Login to hide

Weather


0- 5 10 15 20 25 30 35+ Temperature / ° C

Clouds and Precipitation
Forecast for 2017-12-16 18:00 UTC. Updated 3 minutes ago

Ground ~20,000 ft ~40,000 ft Winds

EGKK

Details ICAO EGKK (LGW)
Name London Gatwick
Region United Kingdom
Timezone Europe/London (UTC+0.0)
Stats Elevation 196 ft / 60 m (AMSL)
Location 51.148753° -0.192472°
Runways 2
Magnetic Variation 0.431° W

METAR

EGKK 161720Z 26009KT 9999 -SHRA FEW010 BKN034 05/03 Q1019

Decode

TAF

TAF EGKK 161052Z 1612/1718 31010KT CAVOK PROB30 TEMPO 1614/1621 9000 -SHRA BKN018 BECMG 1621/1624 VRB04KT 7000 TEMPO 1700/1703 3000 BR BKN002 BECMG 1703/1706 3000 BR MIFG PROB40 1703/1710 0300 FG FZFG VV/// BECMG 1709/1712 24010KT 9999 NSW TEMPO 1710/1718 7000 -RADZ BKN009 PROB30 TEMPO 1714/1718 4000 RA BKN004

Decode

Departure Runways

ID Width Length Bearing (true) Bearing (mag) Surface Threshold Offset Overrun Length
08L 148 ft / 45 m 8,377 ft / 2,553 m 77.69° 78.12° Asphalt 1,053 ft / 321 m 0 ft / 0 m
08R 148 ft / 45 m 10,341 ft / 3,152 m 77.59° 78.02° Asphalt 1,289 ft / 393 m 0 ft / 0 m
26L 148 ft / 45 m 10,341 ft / 3,152 m 257.63° 258.06° Asphalt 879 ft / 268 m 600 ft / 183 m
26R 148 ft / 45 m 8,377 ft / 2,553 m 257.71° 258.14° Asphalt 1,365 ft / 416 m 0 ft / 0 m

GCGM

Details ICAO GCGM (GMZ)
Name La Gomera
Region Canary Islands
Timezone Atlantic/Canary (UTC+0.0)
Stats Elevation 715 ft / 218 m (AMSL)
Location 28.029627° -17.214603°
Runways 1
Magnetic Variation 5.359° W

METAR

GCGM 161700Z VRB02KT 9999 SCT033 20/16 Q1022 RMK R09/VRB02KT ARP/VRB02KT

Decode

TAF

TAF GCGM 161400Z 1615/1715 23010KT 9999 SCT035 TX21/1714Z TN18/1706Z BECMG 1620/1622 35011KT

Decode

Destination Runways

ID Width Length Bearing (true) Bearing (mag) Surface Threshold Offset Overrun Length
09 98 ft / 30 m 4,914 ft / 1,498 m 81.17° 86.53° Asphalt 0 ft / 0 m 0 ft / 0 m
27 98 ft / 30 m 4,914 ft / 1,498 m 261.18° 266.54° Asphalt 0 ft / 0 m 0 ft / 0 m

Popular Alternatives